Archival Weather

Habib Bourguiba Intl

Habib Bourguiba Intl, Tunisia (DTMB)

Report from: Sunday, October 1, 2023 11:30 AM CET
Current time: Saturday, March 2, 2024 10:18 AM CET

Current weather – Weather history – Daily summaries
Weather forecast

Temperature27.0°C (80.6°F)
Heat index28.2°C (82.7°F)
Dew point18.0°C (64.4°F)
Winds 8 kts (4.1 m/s, 9.2 mph) Vrb
Winds variableWinds variable from North-Northwest (340°) to Northeast (50°)
Visibility6.2 mi. (10 km)
Clouds Few clouds 3,000 ft. (914 m)
Altimeter30.21 in.Hg (1023 mB)
Relative humidity58 %
Density altitude1,339 ft. (408 m)
Flight conditions Visual Meteorological Conditions
Raw dataDTMB 011030Z 02008KT 340V050 9999 FEW030 27/18 Q1023
An error has occurred. This application may no longer respond until reloaded. Reload 🗙